Time;durP1;ratioP1;P1;durP2;ratioP2;P2;SDS_P1;SDS_P2;PMS_P1;PMS_P2;Temp;Humidity;BMP_temperature;BMP_pressure;BME280_temperature;BME280_humidity;BME280_pressure;Samples;Min_cycle;Max_cycle;Signal;HPM_P1;HPM_P2
2021/07/07 00:01:42;;;;;;;7.53;1.33;;;14.30;99.90;;;;;;5081272;28;20036;-65
2021/07/07 00:04:08;;;;;;;5.28;1.33;;;14.50;99.90;;;;;;5080442;28;20085;-65
2021/07/07 00:06:34;;;;;;;6.07;1.40;;;14.40;99.90;;;;;;5077859;28;20047;-65
2021/07/07 00:09:00;;;;;;;9.63;1.90;;;14.30;99.90;;;;;;5078257;28;20555;-65
2021/07/07 00:11:25;;;;;;;7.70;2.08;;;14.30;99.90;;;;;;5077872;28;20048;-65
2021/07/07 00:13:51;;;;;;;4.00;1.60;;;14.30;99.90;;;;;;5077984;28;20040;-65
2021/07/07 00:16:17;;;;;;;7.05;1.63;;;14.30;99.90;;;;;;5075532;28;20677;-65
2021/07/07 00:18:43;;;;;;;10.82;3.00;;;14.20;99.90;;;;;;5079306;28;20024;-65
2021/07/07 00:21:09;;;;;;;4.53;1.85;;;14.20;99.90;;;;;;5077700;28;20070;-65
2021/07/07 00:23:36;;;;;;;6.13;1.75;;;14.20;99.90;;;;;;5079455;28;20048;-65
2021/07/07 00:26:02;;;;;;;7.28;1.52;;;14.20;99.90;;;;;;5077061;28;20040;-65
2021/07/07 00:28:28;;;;;;;9.30;1.58;;;14.20;99.90;;;;;;5081807;28;20115;-65
2021/07/07 00:30:55;;;;;;;7.35;1.83;;;14.10;99.90;;;;;;5080027;28;20047;-65
2021/07/07 00:33:21;;;;;;;8.60;1.80;;;14.10;99.90;;;;;;5078910;28;20043;-65
2021/07/07 00:35:48;;;;;;;4.63;1.50;;;14.10;99.90;;;;;;5076762;28;20039;-65
2021/07/07 00:38:14;;;;;;;9.10;1.80;;;14.10;99.90;;;;;;5081889;28;20040;-66
2021/07/07 00:40:43;;;;;;;10.70;1.80;;;14.10;99.90;;;;;;5080664;28;20036;-66
2021/07/07 00:43:09;;;;;;;6.05;1.52;;;14.10;99.90;;;;;;5075350;28;20497;-66
2021/07/07 00:45:38;;;;;;;6.60;2.25;;;14.10;99.90;;;;;;5078738;28;20036;-66
2021/07/07 00:48:32;;;;;;;4.20;1.70;;;14.10;99.90;;;;;;5080318;28;20043;-66
2021/07/07 00:50:59;;;;;;;9.05;1.98;;;14.10;99.90;;;;;;5077978;28;20067;-66
2021/07/07 00:53:26;;;;;;;7.05;1.40;;;14.10;99.90;;;;;;5077297;28;20071;-66
2021/07/07 00:55:53;;;;;;;6.45;2.05;;;14.00;99.90;;;;;;5081235;28;21329;-66
2021/07/07 00:58:21;;;;;;;5.68;1.58;;;14.00;99.90;;;;;;5080686;28;20056;-66
2021/07/07 01:00:47;;;;;;;4.63;1.73;;;14.00;99.90;;;;;;5076832;28;20040;-66
2021/07/07 01:03:13;;;;;;;7.05;1.70;;;14.00;99.90;;;;;;5077725;28;20044;-66
2021/07/07 01:05:39;;;;;;;6.15;1.90;;;13.90;99.90;;;;;;5078824;28;20064;-66
2021/07/07 01:08:04;;;;;;;5.32;1.80;;;13.90;99.90;;;;;;5077634;28;20040;-66
2021/07/07 01:10:30;;;;;;;5.45;2.08;;;13.90;99.90;;;;;;5078074;28;20032;-65
2021/07/07 01:12:56;;;;;;;6.32;2.00;;;14.00;99.90;;;;;;5076555;28;20116;-66
2021/07/07 01:15:22;;;;;;;10.18;2.40;;;14.00;99.90;;;;;;5078693;28;20028;-65
2021/07/07 01:17:49;;;;;;;10.98;2.08;;;14.00;99.90;;;;;;5075665;28;20163;-66
2021/07/07 01:20:18;;;;;;;5.65;2.30;;;14.00;99.90;;;;;;5077389;28;20133;-66
2021/07/07 01:22:44;;;;;;;6.70;2.17;;;14.00;99.90;;;;;;5077508;28;20032;-66
2021/07/07 01:25:13;;;;;;;5.20;2.13;;;13.90;99.90;;;;;;5080447;28;20106;-66
2021/07/07 01:27:40;;;;;;;8.80;2.28;;;13.90;99.90;;;;;;5077900;28;20482;-66
2021/07/07 01:30:08;;;;;;;6.95;1.95;;;13.90;99.90;;;;;;5078683;28;20040;-65
2021/07/07 01:32:33;;;;;;;6.32;2.13;;;13.90;99.90;;;;;;5076303;28;20075;-66
2021/07/07 01:34:59;;;;;;;6.53;1.88;;;14.00;99.90;;;;;;5076782;28;20474;-65
2021/07/07 01:37:26;;;;;;;12.07;2.85;;;14.00;99.90;;;;;;5079066;28;20041;-66
2021/07/07 01:39:52;;;;;;;5.60;2.22;;;14.10;99.90;;;;;;5078689;28;20032;-66
2021/07/07 01:42:19;;;;;;;6.75;2.50;;;14.00;99.90;;;;;;5072727;28;20043;-66
2021/07/07 01:44:45;;;;;;;5.38;2.08;;;14.00;99.90;;;;;;5076985;28;20051;-66
2021/07/07 01:47:11;;;;;;;9.70;2.67;;;14.10;99.90;;;;;;5079446;28;20067;-66
2021/07/07 01:49:37;;;;;;;5.75;2.10;;;14.20;99.90;;;;;;5077541;28;20054;-66
2021/07/07 01:52:03;;;;;;;10.13;2.13;;;14.20;99.90;;;;;;5074804;28;20051;-66
2021/07/07 01:54:28;;;;;;;9.15;2.10;;;14.20;99.90;;;;;;5077492;28;20663;-66
2021/07/07 01:56:54;;;;;;;5.68;2.15;;;14.20;99.90;;;;;;5078279;28;20039;-66
2021/07/07 01:59:20;;;;;;;7.13;3.03;;;14.20;99.90;;;;;;5078137;28;20035;-66
2021/07/07 02:01:45;;;;;;;5.22;1.98;;;14.30;99.90;;;;;;5075999;28;20105;-66
2021/07/07 02:04:11;;;;;;;4.50;2.13;;;14.30;99.90;;;;;;5079546;28;20075;-65
2021/07/07 02:06:37;;;;;;;8.00;2.35;;;14.20;99.90;;;;;;5076580;28;20382;-66
2021/07/07 02:09:05;;;;;;;7.07;2.60;;;14.30;99.90;;;;;;5073986;28;20041;-66
2021/07/07 02:11:31;;;;;;;4.93;2.15;;;14.30;99.90;;;;;;5076492;28;20044;-66
2021/07/07 02:13:57;;;;;;;14.98;2.20;;;14.30;99.90;;;;;;5079667;28;20040;-66
2021/07/07 02:16:23;;;;;;;7.53;2.00;;;14.40;99.90;;;;;;5078380;28;20035;-65
2021/07/07 02:18:48;;;;;;;5.72;2.08;;;14.30;99.90;;;;;;5076042;28;20146;-65
2021/07/07 02:21:14;;;;;;;6.13;1.95;;;14.30;99.90;;;;;;5076072;28;20090;-65
2021/07/07 02:23:40;;;;;;;2.75;1.70;;;14.40;99.90;;;;;;5077445;28;20044;-66
2021/07/07 02:26:06;;;;;;;5.82;2.10;;;14.40;99.90;;;;;;5082629;28;20040;-66
2021/07/07 02:28:32;;;;;;;6.32;2.40;;;14.30;99.90;;;;;;5081142;28;20430;-65
2021/07/07 02:30:58;;;;;;;4.22;2.28;;;14.30;99.90;;;;;;5080586;28;20032;-65
2021/07/07 02:33:25;;;;;;;5.75;2.03;;;14.20;99.90;;;;;;5075974;28;20047;-66
2021/07/07 02:35:52;;;;;;;12.65;1.85;;;14.30;99.90;;;;;;5079834;28;20047;-66
2021/07/07 02:38:20;;;;;;;10.80;2.47;;;14.20;99.90;;;;;;5080356;28;20033;-66
2021/07/07 02:40:49;;;;;;;8.50;2.50;;;14.20;99.90;;;;;;5081553;28;20066;-66
2021/07/07 02:43:15;;;;;;;6.32;2.30;;;14.30;99.90;;;;;;5081193;28;20143;-66
2021/07/07 02:45:42;;;;;;;4.72;2.40;;;14.20;99.90;;;;;;5086016;28;20060;-66
2021/07/07 02:48:09;;;;;;;8.93;2.38;;;14.20;99.90;;;;;;5084625;28;20042;-66
2021/07/07 02:50:37;;;;;;;11.45;2.30;;;14.30;99.90;;;;;;5086352;28;20040;-65
2021/07/07 02:53:03;;;;;;;2.38;1.70;;;14.20;99.90;;;;;;5084101;28;20089;-65
2021/07/07 02:55:29;;;;;;;14.80;2.78;;;14.20;99.90;;;;;;5084923;28;20486;-65
2021/07/07 02:58:05;;;;;;;10.57;2.45;;;14.30;99.90;;;;;;5088094;28;20090;-65
2021/07/07 03:00:36;;;;;;;;;;;14.20;99.90;;;;;;5088353;28;20096;-65
2021/07/07 03:03:07;;;;;;;6.03;2.50;;;14.30;99.90;;;;;;5080506;28;19924;-65
2021/07/07 03:05:39;;;;;;;4.57;2.28;;;14.30;99.90;;;;;;5085430;28;20119;-66
2021/07/07 03:08:05;;;;;;;8.65;2.45;;;14.20;99.90;;;;;;5086422;28;20032;-65
2021/07/07 03:10:31;;;;;;;11.43;2.13;;;14.20;99.90;;;;;;5085296;28;20786;-65
2021/07/07 03:12:57;;;;;;;4.90;2.50;;;14.20;99.90;;;;;;5083710;28;20139;-66
2021/07/07 03:15:23;;;;;;;11.35;2.78;;;14.30;99.90;;;;;;5087295;28;20083;-65
2021/07/07 03:17:49;;;;;;;6.65;2.00;;;14.20;99.90;;;;;;5086776;28;20086;-65
2021/07/07 03:20:15;;;;;;;6.38;1.90;;;14.20;99.90;;;;;;5087023;28;20051;-66
2021/07/07 03:22:41;;;;;;;6.47;2.28;;;14.20;99.90;;;;;;5080989;28;20452;-66
2021/07/07 03:25:07;;;;;;;5.55;2.15;;;14.20;99.90;;;;;;5084128;28;20042;-65
2021/07/07 03:27:34;;;;;;;6.55;2.17;;;14.10;99.90;;;;;;5085598;28;20092;-65
2021/07/07 03:29:59;;;;;;;4.07;2.20;;;14.10;99.90;;;;;;5084189;28;20039;-66
2021/07/07 03:32:25;;;;;;;5.70;2.17;;;14.10;99.90;;;;;;5081878;28;20049;-66
2021/07/07 03:34:51;;;;;;;6.18;2.38;;;14.20;99.90;;;;;;5086141;28;20688;-66
2021/07/07 03:37:17;;;;;;;6.80;2.15;;;14.20;99.90;;;;;;5085209;28;20036;-66
2021/07/07 03:39:42;;;;;;;8.00;2.05;;;14.10;99.90;;;;;;5084239;28;20032;-66
2021/07/07 03:42:08;;;;;;;8.05;1.98;;;14.20;99.90;;;;;;5077603;28;20063;-66
2021/07/07 03:44:34;;;;;;;6.80;2.45;;;14.20;99.90;;;;;;5085781;28;20043;-66
2021/07/07 03:47:00;;;;;;;9.95;2.40;;;14.20;99.90;;;;;;5086220;28;20060;-66
2021/07/07 03:49:26;;;;;;;8.07;1.80;;;14.20;99.90;;;;;;5085765;28;20105;-66
2021/07/07 03:51:52;;;;;;;4.45;2.20;;;14.20;99.90;;;;;;5082482;28;20040;-66
2021/07/07 03:54:17;;;;;;;4.57;1.90;;;14.20;99.90;;;;;;5081467;28;20046;-66
2021/07/07 03:56:43;;;;;;;5.35;1.77;;;14.30;99.90;;;;;;5085698;28;20677;-66
2021/07/07 03:59:09;;;;;;;5.82;2.00;;;14.30;99.90;;;;;;5084552;28;20036;-66
2021/07/07 04:01:34;;;;;;;4.55;1.98;;;14.40;99.90;;;;;;5082333;28;20055;-66
2021/07/07 04:04:00;;;;;;;6.40;2.35;;;14.50;99.90;;;;;;5085811;28;20051;-66
2021/07/07 04:06:26;;;;;;;3.95;1.83;;;14.40;99.90;;;;;;5085144;28;20047;-65
2021/07/07 04:08:52;;;;;;;5.30;1.88;;;14.40;99.90;;;;;;5085518;28;20045;-66
2021/07/07 04:11:17;;;;;;;5.85;1.88;;;14.50;99.90;;;;;;5081675;28;20414;-66
2021/07/07 04:13:43;;;;;;;6.60;1.95;;;14.50;99.90;;;;;;5082923;28;20466;-66
2021/07/07 04:16:12;;;;;;;4.32;2.10;;;14.50;99.90;;;;;;5085912;28;20039;-66
2021/07/07 04:18:37;;;;;;;3.80;1.58;;;14.70;99.90;;;;;;5084784;28;20063;-66
2021/07/07 04:21:03;;;;;;;5.40;2.13;;;14.70;99.90;;;;;;5085205;28;20134;-66
2021/07/07 04:23:29;;;;;;;7.43;1.88;;;14.70;99.90;;;;;;5082178;28;20040;-66
2021/07/07 04:25:55;;;;;;;5.65;2.08;;;14.80;99.90;;;;;;5085051;28;20505;-66
2021/07/07 04:28:21;;;;;;;7.28;2.22;;;14.80;99.90;;;;;;5084372;28;20560;-66
2021/07/07 04:30:46;;;;;;;4.10;1.83;;;14.90;99.90;;;;;;5083874;28;20036;-66
2021/07/07 04:33:13;;;;;;;5.15;1.90;;;15.00;99.90;;;;;;5081685;28;20178;-66
2021/07/07 04:35:39;;;;;;;5.63;2.80;;;15.10;99.90;;;;;;5084928;28;20975;-66
2021/07/07 04:38:04;;;;;;;4.35;1.90;;;15.20;99.90;;;;;;5081646;28;20410;-66
2021/07/07 04:40:31;;;;;;;6.20;2.10;;;15.20;99.90;;;;;;5081384;28;20040;-66
2021/07/07 04:42:57;;;;;;;3.58;2.35;;;15.20;99.90;;;;;;5080495;28;20064;-66
2021/07/07 04:45:22;;;;;;;7.88;2.05;;;15.30;99.90;;;;;;5084210;28;20916;-66
2021/07/07 04:47:48;;;;;;;6.63;2.22;;;15.30;99.90;;;;;;5083709;28;20044;-66
2021/07/07 04:50:16;;;;;;;5.57;1.67;;;15.40;99.90;;;;;;5083202;28;20038;-66
2021/07/07 04:52:42;;;;;;;6.70;2.10;;;15.50;99.90;;;;;;5081271;28;20044;-66
2021/07/07 04:55:10;;;;;;;4.68;1.58;;;15.80;99.90;;;;;;5081355;28;20040;-66
2021/07/07 04:57:40;;;;;;;5.53;1.50;;;16.70;99.90;;;;;;5085690;28;20072;-66
2021/07/07 05:00:15;;;;;;;6.13;1.40;;;18.00;99.90;;;;;;5084974;28;21991;-66
2021/07/07 05:02:42;;;;;;;6.13;1.40;;;19.40;99.10;;;;;;5079320;28;20055;-66
2021/07/07 05:05:10;;;;;;;7.88;1.52;;;20.50;96.50;;;;;;5081781;28;20055;-67
2021/07/07 05:07:35;;;;;;;3.20;1.40;;;21.40;94.80;;;;;;5084414;28;20044;-67
2021/07/07 05:10:03;;;;;;;5.32;1.38;;;21.80;93.60;;;;;;5082116;28;20446;-66
2021/07/07 05:12:29;;;;;;;3.28;1.40;;;21.80;92.90;;;;;;5078712;28;20093;-66
2021/07/07 05:14:55;;;;;;;6.18;1.85;;;21.70;92.10;;;;;;5084642;28;20036;-66
2021/07/07 05:17:23;;;;;;;11.15;1.27;;;21.60;92.20;;;;;;5080851;28;20044;-66
2021/07/07 05:19:49;;;;;;;5.60;1.35;;;21.40;93.00;;;;;;5082334;28;20069;-66
2021/07/07 05:22:15;;;;;;;5.13;1.75;;;21.10;94.00;;;;;;5082799;28;20112;-66
2021/07/07 05:24:41;;;;;;;3.97;1.42;;;21.00;94.20;;;;;;5083269;28;20044;-66
2021/07/07 05:27:07;;;;;;;5.20;1.35;;;20.90;94.00;;;;;;5081369;28;20113;-66
2021/07/07 05:29:33;;;;;;;4.05;1.85;;;20.90;94.40;;;;;;5081859;28;20910;-66
2021/07/07 05:31:59;;;;;;;2.75;0.90;;;20.80;94.60;;;;;;5081271;28;20048;-66
2021/07/07 05:34:25;;;;;;;5.05;1.20;;;20.80;94.70;;;;;;5082421;28;20032;-66
2021/07/07 05:36:51;;;;;;;6.40;1.45;;;20.90;93.50;;;;;;5084713;28;20043;-66
2021/07/07 05:39:17;;;;;;;5.80;1.83;;;20.80;94.70;;;;;;5083371;28;20050;-66
2021/07/07 05:41:43;;;;;;;4.70;1.02;;;20.80;94.00;;;;;;5078941;28;20028;-66
2021/07/07 05:44:08;;;;;;;4.55;1.30;;;20.90;93.90;;;;;;5080643;28;20043;-66
2021/07/07 05:46:34;;;;;;;2.72;1.38;;;20.90;93.80;;;;;;5081351;28;20101;-66
2021/07/07 05:49:00;;;;;;;6.45;1.17;;;20.90;93.50;;;;;;5079977;28;20043;-66
2021/07/07 05:51:25;;;;;;;8.57;1.25;;;20.90;93.80;;;;;;5083217;28;20044;-66
2021/07/07 05:53:51;;;;;;;5.82;1.15;;;21.00;93.70;;;;;;5081625;28;20383;-66
2021/07/07 05:56:17;;;;;;;2.72;1.10;;;20.90;93.80;;;;;;5081019;28;20032;-66
2021/07/07 05:58:42;;;;;;;3.20;1.25;;;20.70;94.10;;;;;;5083116;28;20046;-66
2021/07/07 06:01:08;;;;;;;5.00;1.60;;;20.50;94.20;;;;;;5078877;28;20040;-66
2021/07/07 06:03:34;;;;;;;6.65;1.27;;;20.20;95.10;;;;;;5077587;28;20123;-66
2021/07/07 06:06:00;;;;;;;3.88;1.63;;;20.10;95.00;;;;;;5081890;28;20127;-66
2021/07/07 06:08:26;;;;;;;10.25;1.95;;;19.80;95.80;;;;;;5069870;28;20571;-66
2021/07/07 06:10:51;;;;;;;6.00;1.20;;;19.60;96.50;;;;;;5078792;28;20127;-66
2021/07/07 06:13:17;;;;;;;16.08;2.65;;;19.30;96.80;;;;;;5080417;28;20043;-66
2021/07/07 06:15:43;;;;;;;4.30;1.77;;;19.20;97.10;;;;;;5084917;28;20043;-66
2021/07/07 06:18:09;;;;;;;6.25;1.50;;;19.10;97.50;;;;;;5101867;28;20044;-66
2021/07/07 06:20:35;;;;;;;7.60;2.00;;;19.00;97.80;;;;;;5083141;28;20140;-66
2021/07/07 06:23:01;;;;;;;3.47;1.65;;;18.90;97.80;;;;;;5076421;28;20037;-66
2021/07/07 06:25:27;;;;;;;4.28;1.50;;;18.80;98.20;;;;;;5084189;28;20047;-66
2021/07/07 06:27:53;;;;;;;6.18;1.48;;;18.80;98.40;;;;;;5084282;28;20393;-66
2021/07/07 06:30:24;;;;;;;5.57;2.15;;;18.70;98.50;;;;;;5083372;28;20093;-66
2021/07/07 06:32:51;;;;;;;4.95;1.30;;;18.50;99.10;;;;;;5082057;28;20039;-66
2021/07/07 06:35:18;;;;;;;5.50;1.70;;;18.50;99.40;;;;;;5084784;28;20052;-66
2021/07/07 06:37:45;;;;;;;8.57;1.65;;;18.40;99.80;;;;;;5083015;28;20044;-66
2021/07/07 06:40:12;;;;;;;12.07;2.58;;;18.40;99.90;;;;;;5080549;28;20284;-66
2021/07/07 06:42:38;;;;;;;3.90;1.70;;;18.40;99.90;;;;;;5082287;28;20118;-67
2021/07/07 06:45:06;;;;;;;6.97;2.22;;;18.40;99.90;;;;;;5081922;28;20048;-66
2021/07/07 06:47:32;;;;;;;7.50;2.13;;;18.50;99.90;;;;;;5082589;28;20056;-67
2021/07/07 06:49:59;;;;;;;5.32;2.08;;;18.50;99.90;;;;;;5079786;28;20040;-66
2021/07/07 06:52:25;;;;;;;5.55;2.00;;;18.50;99.90;;;;;;5079170;28;20417;-66
2021/07/07 06:54:51;;;;;;;6.85;1.80;;;18.60;99.90;;;;;;5083314;28;20044;-67
2021/07/07 06:57:17;;;;;;;7.55;2.20;;;18.60;99.90;;;;;;5082500;28;20036;-66
2021/07/07 06:59:43;;;;;;;9.63;2.28;;;18.80;99.90;;;;;;5081142;28;20043;-67
2021/07/07 07:02:09;;;;;;;7.40;2.00;;;18.80;99.90;;;;;;5081268;28;20087;-67
2021/07/07 07:04:35;;;;;;;10.32;2.78;;;18.80;99.90;;;;;;5084514;28;20060;-66
2021/07/07 07:07:02;;;;;;;6.32;2.03;;;18.90;99.90;;;;;;5081609;28;20436;-67
2021/07/07 07:09:28;;;;;;;4.82;2.35;;;18.90;99.80;;;;;;5086053;28;20032;-66
2021/07/07 07:11:54;;;;;;;7.78;2.47;;;19.00;99.90;;;;;;5078430;28;20492;-67
2021/07/07 07:14:20;;;;;;;5.90;2.33;;;19.10;99.90;;;;;;5084100;28;20051;-66
2021/07/07 07:16:46;;;;;;;9.30;2.03;;;19.10;99.90;;;;;;5084389;28;20384;-67
2021/07/07 07:19:13;;;;;;;9.77;2.20;;;19.20;99.60;;;;;;5084078;28;20044;-67
2021/07/07 07:21:40;;;;;;;8.35;3.10;;;19.30;99.70;;;;;;5080590;28;20049;-67
2021/07/07 07:24:06;;;;;;;9.52;2.15;;;19.20;99.50;;;;;;5084407;28;20075;-67
2021/07/07 07:26:33;;;;;;;7.97;2.30;;;19.30;99.80;;;;;;5082001;28;20382;-67
2021/07/07 07:29:01;;;;;;;10.40;2.28;;;19.40;99.20;;;;;;5082119;28;20070;-67
2021/07/07 07:31:27;;;;;;;6.45;2.63;;;19.50;99.00;;;;;;5080471;28;20131;-67
2021/07/07 07:33:53;;;;;;;6.80;2.35;;;19.50;99.60;;;;;;5083832;28;20032;-67
2021/07/07 07:36:20;;;;;;;9.55;2.60;;;19.60;99.30;;;;;;5084786;28;20511;-67
2021/07/07 07:38:59;;;;;;;6.50;2.58;;;19.80;99.00;;;;;;5082993;28;20032;-67
2021/07/07 07:41:34;;;;;;;10.18;2.53;;;19.90;98.80;;;;;;5079241;28;20850;-67
2021/07/07 07:44:00;;;;;;;7.45;2.40;;;19.90;98.40;;;;;;5082602;28;20047;-67
2021/07/07 07:46:29;;;;;;;4.43;2.17;;;19.80;98.80;;;;;;5081737;28;20036;-66
2021/07/07 07:48:56;;;;;;;8.95;1.88;;;19.90;99.30;;;;;;5076185;28;20036;-67
2021/07/07 07:51:23;;;;;;;7.53;2.33;;;20.00;98.60;;;;;;5074778;28;20044;-66
2021/07/07 07:53:49;;;;;;;4.55;1.48;;;20.10;98.20;;;;;;5075962;28;20044;-67
2021/07/07 07:56:18;;;;;;;5.95;1.95;;;20.10;98.70;;;;;;5076725;28;20039;-67
2021/07/07 07:58:45;;;;;;;13.15;3.03;;;20.10;97.70;;;;;;5076186;28;20067;-67
2021/07/07 08:01:11;;;;;;;5.40;1.48;;;20.10;97.20;;;;;;5071747;28;20780;-67
2021/07/07 08:03:37;;;;;;;8.73;2.30;;;20.10;97.70;;;;;;5078496;28;20036;-66
2021/07/07 08:06:03;;;;;;;10.73;2.40;;;20.00;98.40;;;;;;5075506;28;20531;-67
2021/07/07 08:08:28;;;;;;;6.88;2.15;;;20.10;98.70;;;;;;5076693;28;20474;-67
2021/07/07 08:10:54;;;;;;;7.15;2.15;;;20.10;98.20;;;;;;5078278;28;20036;-67
2021/07/07 08:13:20;;;;;;;8.52;2.17;;;20.10;98.70;;;;;;5076715;28;20036;-67
2021/07/07 08:15:46;;;;;;;5.72;2.20;;;20.10;98.90;;;;;;5078193;28;20040;-67
2021/07/07 08:18:12;;;;;;;9.15;1.92;;;20.20;99.30;;;;;;5076768;28;20048;-66
2021/07/07 08:20:39;;;;;;;7.55;1.90;;;20.30;98.40;;;;;;5074965;28;20042;-67
2021/07/07 08:23:05;;;;;;;9.95;2.60;;;20.30;98.70;;;;;;5073924;28;20439;-67
2021/07/07 08:25:30;;;;;;;7.25;2.10;;;20.40;98.50;;;;;;5076598;28;20062;-66
2021/07/07 08:27:56;;;;;;;10.80;2.08;;;20.60;97.60;;;;;;5074773;28;22989;-66
2021/07/07 08:30:23;;;;;;;6.65;2.55;;;20.60;97.40;;;;;;5078233;28;22085;-67
2021/07/07 08:32:50;;;;;;;6.53;2.13;;;20.60;97.30;;;;;;5075169;28;20055;-67
2021/07/07 08:35:16;;;;;;;5.53;2.60;;;20.70;97.10;;;;;;5074301;28;20040;-67
2021/07/07 08:37:43;;;;;;;9.75;2.08;;;20.80;96.40;;;;;;5075030;28;20062;-67
2021/07/07 08:40:11;;;;;;;11.07;3.55;;;20.90;96.90;;;;;;5076039;28;20036;-67
2021/07/07 08:42:39;;;;;;;5.43;2.20;;;21.10;96.70;;;;;;5075226;28;20040;-67
2021/07/07 08:45:10;;;;;;;8.13;2.20;;;21.40;96.20;;;;;;5074145;28;20040;-66
2021/07/07 08:47:38;;;;;;;6.60;2.33;;;21.60;95.90;;;;;;5074900;28;20115;-66
2021/07/07 08:50:13;;;;;;;8.25;1.90;;;21.80;94.60;;;;;;5075457;28;20036;-66
2021/07/07 08:52:39;;;;;;;7.35;2.33;;;21.90;94.70;;;;;;5090129;28;20055;-66
2021/07/07 08:55:11;;;;;;;8.35;2.55;;;22.20;95.00;;;;;;5074349;28;20056;-66
2021/07/07 08:57:43;;;;;;;6.55;2.20;;;22.40;94.10;;;;;;5076271;28;20028;-66
2021/07/07 09:00:15;;;;;;;11.45;2.10;;;22.60;94.10;;;;;;5076724;28;20086;-66
2021/07/07 09:02:56;;;;;;;5.55;2.30;;;22.70;93.60;;;;;;5071158;28;20044;-66
2021/07/07 09:05:24;;;;;;;9.70;2.20;;;22.80;92.90;;;;;;5076659;28;20044;-66
2021/07/07 09:07:50;;;;;;;7.45;2.40;;;22.80;93.20;;;;;;5076848;28;20032;-66
2021/07/07 09:10:30;;;;;;;6.20;1.85;;;22.80;91.80;;;;;;5078287;28;20036;-66
2021/07/07 09:13:13;;;;;;;5.35;1.80;;;22.90;92.00;;;;;;5072865;28;20046;-66
2021/07/07 09:15:40;;;;;;;7.03;2.42;;;23.00;92.30;;;;;;5075590;28;20069;-66
2021/07/07 09:18:07;;;;;;;5.65;2.22;;;23.20;92.40;;;;;;5074353;28;20032;-66
2021/07/07 09:20:38;;;;;;;7.65;2.53;;;23.30;91.90;;;;;;5075778;28;20047;-66
2021/07/07 09:23:25;;;;;;;6.80;2.17;;;23.40;91.20;;;;;;5072773;28;20041;-66
2021/07/07 09:26:04;;;;;;;10.65;2.60;;;23.40;92.00;;;;;;5076002;28;20035;-66
2021/07/07 09:28:33;;;;;;;8.38;3.35;;;23.50;92.20;;;;;;5089078;28;20036;-67
2021/07/07 09:31:02;;;;;;;5.47;2.60;;;23.40;91.90;;;;;;5075821;28;20616;-67
2021/07/07 09:33:49;;;;;;;7.55;2.92;;;23.40;92.20;;;;;;5075454;28;20079;-66
2021/07/07 09:36:31;;;;;;;12.32;3.42;;;23.50;91.50;;;;;;5076527;28;20050;-66
2021/07/07 09:39:17;;;;;;;10.27;2.50;;;23.70;92.60;;;;;;5074217;28;20040;-66
2021/07/07 09:41:45;;;;;;;5.63;2.25;;;23.80;91.60;;;;;;5073933;28;20109;-66
2021/07/07 09:44:33;;;;;;;6.50;2.45;;;24.00;91.40;;;;;;5076453;28;20831;-66
2021/07/07 09:47:04;;;;;;;10.15;2.00;;;24.20;90.90;;;;;;5076934;28;20040;-66
2021/07/07 09:49:32;;;;;;;7.32;2.15;;;24.30;90.70;;;;;;5078735;28;20104;-67
2021/07/07 09:52:21;;;;;;;11.98;2.53;;;24.30;90.80;;;;;;5075968;28;20079;-66
2021/07/07 09:54:47;;;;;;;6.78;1.95;;;24.40;90.00;;;;;;5079777;28;20195;-66
2021/07/07 09:57:14;;;;;;;7.20;2.22;;;24.40;90.10;;;;;;5077607;28;20107;-66
2021/07/07 09:59:40;;;;;;;8.63;2.00;;;24.50;88.90;;;;;;5080586;28;20044;-67
2021/07/07 10:02:07;;;;;;;11.00;2.10;;;24.60;90.10;;;;;;5075333;28;20043;-67
2021/07/07 10:04:53;;;;;;;11.93;1.30;;;24.70;89.80;;;;;;5092917;28;20039;-67
2021/07/07 10:07:40;;;;;;;5.60;1.65;;;24.60;88.50;;;;;;5065241;28;20052;-67
2021/07/07 10:10:29;;;;;;;5.07;1.52;;;24.60;86.70;;;;;;5081988;28;20051;-67
2021/07/07 10:12:54;;;;;;;8.63;1.30;;;24.40;87.10;;;;;;5078346;28;20036;-67
2021/07/07 10:15:20;;;;;;;7.15;2.67;;;24.40;86.70;;;;;;5080324;28;20036;-66
2021/07/07 10:17:46;;;;;;;6.40;1.58;;;24.30;84.90;;;;;;5078154;28;20090;-66
2021/07/07 10:20:14;;;;;;;4.72;1.00;;;24.20;85.00;;;;;;5080846;28;20052;-67
2021/07/07 10:22:42;;;;;;;9.88;3.20;;;24.20;83.10;;;;;;5075347;28;20096;-67
2021/07/07 10:25:14;;;;;;;8.40;1.95;;;24.00;85.10;;;;;;5078836;28;20068;-66
2021/07/07 10:27:41;;;;;;;8.65;2.40;;;23.90;89.20;;;;;;5080415;28;20063;-67
2021/07/07 10:30:08;;;;;;;7.35;1.52;;;23.90;88.60;;;;;;5079091;28;20028;-67
2021/07/07 10:32:34;;;;;;;7.55;2.05;;;23.90;89.40;;;;;;5074805;28;21291;-67
2021/07/07 10:35:10;;;;;;;12.68;2.00;;;24.00;89.30;;;;;;5080811;28;20048;-67
2021/07/07 10:37:37;;;;;;;8.85;2.10;;;24.00;87.20;;;;;;5076651;28;20044;-67
2021/07/07 10:40:28;;;;;;;7.82;2.08;;;24.00;88.80;;;;;;5075692;28;20466;-67
2021/07/07 10:42:55;;;;;;;8.05;2.05;;;23.80;88.00;;;;;;5073725;28;20382;-66
2021/07/07 10:45:41;;;;;;;9.93;1.42;;;23.80;89.80;;;;;;5077421;28;20047;-67
2021/07/07 10:48:34;;;;;;;8.20;1.88;;;23.80;88.80;;;;;;5077403;28;20036;-66
2021/07/07 10:51:21;;;;;;;8.30;2.05;;;23.70;88.70;;;;;;5079095;28;20036;-66
2021/07/07 10:53:47;;;;;;;8.68;1.58;;;23.60;90.00;;;;;;5080355;28;20039;-67
2021/07/07 10:56:13;;;;;;;7.18;2.15;;;23.60;90.40;;;;;;5081898;28;20044;-67
2021/07/07 10:58:41;;;;;;;9.02;1.92;;;23.60;90.80;;;;;;5080095;28;20039;-67
2021/07/07 11:01:37;;;;;;;8.90;2.88;;;23.50;90.40;;;;;;5080162;28;20491;-67
2021/07/07 11:04:04;;;;;;;7.72;1.70;;;23.40;88.40;;;;;;5082611;28;20493;-66
2021/07/07 11:06:37;;;;;;;5.90;1.95;;;23.10;88.00;;;;;;5081991;28;20051;-66
2021/07/07 11:09:15;;;;;;;5.90;1.42;;;23.00;89.60;;;;;;5081690;28;20043;-66
2021/07/07 11:11:44;;;;;;;8.05;1.60;;;22.80;90.80;;;;;;5077631;28;20051;-66
2021/07/07 11:14:18;;;;;;;6.63;2.13;;;22.60;90.70;;;;;;5080769;28;20044;-66
2021/07/07 11:17:05;;;;;;;5.38;1.95;;;22.50;91.90;;;;;;5081114;28;20381;-66
2021/07/07 11:19:50;;;;;;;9.70;2.63;;;22.50;92.20;;;;;;5082196;28;21146;-66
2021/07/07 11:22:18;;;;;;;8.00;2.40;;;22.50;94.20;;;;;;5078738;28;20045;-67
2021/07/07 11:24:49;;;;;;;11.88;3.90;;;22.20;95.50;;;;;;5081563;28;20093;-66
2021/07/07 11:27:15;;;;;;;7.65;3.17;;;22.00;96.70;;;;;;5080282;28;20119;-66
2021/07/07 11:29:42;;;;;;;8.45;3.38;;;21.80;97.30;;;;;;5083503;28;20058;-66
2021/07/07 11:32:21;;;;;;;8.93;2.55;;;21.70;97.60;;;;;;5078424;28;20044;-67
2021/07/07 11:34:58;;;;;;;8.05;2.45;;;21.70;97.80;;;;;;5083503;28;20048;-67
2021/07/07 11:37:27;;;;;;;8.95;3.35;;;21.60;98.30;;;;;;5081712;28;20044;-66
2021/07/07 11:40:15;;;;;;;7.93;3.40;;;21.80;99.00;;;;;;5081577;28;20168;-66
2021/07/07 11:42:54;;;;;;;7.07;2.53;;;22.10;99.60;;;;;;5078119;28;20036;-66
2021/07/07 11:45:37;;;;;;;8.63;2.15;;;22.60;99.10;;;;;;5080142;28;20040;-66
2021/07/07 11:48:30;;;;;;;6.47;2.22;;;22.80;98.10;;;;;;5081533;28;20036;-66
2021/07/07 11:50:56;;;;;;;7.15;2.80;;;22.90;97.50;;;;;;5081485;28;20055;-66
2021/07/07 11:53:31;;;;;;;5.72;2.60;;;22.90;97.00;;;;;;5080840;28;20983;-66
2021/07/07 11:55:58;;;;;;;7.72;2.55;;;22.70;96.80;;;;;;5096059;28;20032;-66
2021/07/07 11:58:33;;;;;;;7.28;2.47;;;22.70;96.10;;;;;;5080799;28;20036;-66
2021/07/07 12:01:13;;;;;;;8.20;1.73;;;22.50;96.70;;;;;;5083591;28;20058;-66
2021/07/07 12:03:40;;;;;;;4.68;2.15;;;22.40;96.60;;;;;;5079266;28;20051;-66
2021/07/07 12:06:08;;;;;;;11.98;2.30;;;22.30;97.30;;;;;;5081458;28;20101;-66
2021/07/07 12:08:39;;;;;;;6.28;1.52;;;22.20;96.50;;;;;;5080399;28;20491;-67
2021/07/07 12:11:17;;;;;;;3.30;1.45;;;22.10;96.00;;;;;;5077633;28;20036;-67
2021/07/07 12:13:45;;;;;;;5.05;2.15;;;21.90;96.40;;;;;;5078015;28;20433;-67
2021/07/07 12:16:29;;;;;;;5.78;1.95;;;21.80;96.50;;;;;;5078935;28;20067;-67
2021/07/07 12:19:04;;;;;;;5.40;1.65;;;21.70;97.30;;;;;;5080800;28;20047;-67
2021/07/07 12:21:32;;;;;;;6.63;2.47;;;21.70;97.40;;;;;;5078877;28;20051;-67
2021/07/07 12:24:01;;;;;;;4.53;2.35;;;21.60;98.00;;;;;;5078484;28;20036;-67
2021/07/07 12:26:32;;;;;;;6.90;2.42;;;21.40;98.30;;;;;;5081377;28;20441;-67
2021/07/07 12:29:00;;;;;;;8.95;3.00;;;21.40;99.30;;;;;;5076469;28;20032;-67
2021/07/07 12:31:37;;;;;;;6.60;2.40;;;21.30;99.20;;;;;;5075102;28;20133;-67
2021/07/07 12:34:07;;;;;;;7.32;2.35;;;21.30;99.60;;;;;;5078399;28;20624;-67
2021/07/07 12:36:34;;;;;;;7.60;2.65;;;21.10;99.60;;;;;;5077835;28;20040;-67
2021/07/07 12:39:14;;;;;;;3.58;1.73;;;21.10;99.30;;;;;;5079514;28;20040;-67
2021/07/07 12:41:43;;;;;;;5.30;2.45;;;21.00;98.10;;;;;;5079313;28;20123;-67
2021/07/07 12:44:12;;;;;;;7.65;2.92;;;20.80;98.90;;;;;;5078994;28;20039;-67
2021/07/07 12:46:55;;;;;;;9.20;2.47;;;20.80;98.90;;;;;;5080466;28;20041;-67
2021/07/07 12:49:38;;;;;;;5.13;2.40;;;20.70;98.90;;;;;;5080140;28;20041;-67
2021/07/07 12:52:23;;;;;;;4.80;2.25;;;20.60;99.90;;;;;;5076931;28;20469;-67
2021/07/07 12:55:14;;;;;;;7.88;2.33;;;20.60;99.90;;;;;;5076918;28;20042;-67